createdAt,value
2022-09-26T00:00:22.511Z,14.25
2022-09-26T00:01:25.122Z,15.99
2022-09-26T00:02:27.535Z,15.40
2022-09-26T00:03:29.854Z,15.53
2022-09-26T00:04:33.068Z,14.50
2022-09-26T00:05:35.899Z,12.69
2022-09-26T00:06:38.564Z,19.26
2022-09-26T00:07:41.128Z,14.98
2022-09-26T00:08:43.726Z,15.27
2022-09-26T00:09:46.293Z,15.92
2022-09-26T00:10:48.895Z,13.73
2022-09-26T00:11:51.570Z,16.69
2022-09-26T00:12:54.121Z,14.71
2022-09-26T00:13:56.571Z,14.98
2022-09-26T00:15:01.417Z,14.72
2022-09-26T00:16:04.024Z,13.37
2022-09-26T00:17:06.448Z,13.67
2022-09-26T00:18:08.934Z,16.21
2022-09-26T00:19:11.346Z,15.18
2022-09-26T00:20:13.729Z,13.29
2022-09-26T00:21:16.191Z,15.44
2022-09-26T00:22:18.553Z,15.13
2022-09-26T00:23:21.125Z,13.52
2022-09-26T00:24:23.598Z,17.79
2022-09-26T00:25:26.156Z,18.44
2022-09-26T00:26:28.813Z,16.63
2022-09-26T00:27:31.751Z,15.13
2022-09-26T00:28:34.274Z,13.83
2022-09-26T00:29:36.774Z,13.34
2022-09-26T00:30:39.429Z,12.52
2022-09-26T00:31:42.287Z,13.60
2022-09-26T00:32:54.038Z,16.24
2022-09-26T00:33:57.342Z,13.68
2022-09-26T00:35:00.515Z,13.88
2022-09-26T00:36:03.915Z,14.30
2022-09-26T00:37:07.274Z,13.42
2022-09-26T00:38:10.576Z,17.66
2022-09-26T00:39:13.844Z,17.72
2022-09-26T00:40:16.797Z,17.58
2022-09-26T00:41:19.922Z,15.77
2022-09-26T00:42:23.920Z,15.04
2022-09-26T00:43:26.580Z,14.68
2022-09-26T00:44:29.264Z,16.13
2022-09-26T00:45:32.520Z,16.92
2022-09-26T00:46:35.529Z,18.43
2022-09-26T00:47:38.695Z,24.22
2022-09-26T00:48:42.009Z,15.35
2022-09-26T00:49:45.058Z,16.72
2022-09-26T00:50:47.829Z,15.22
2022-09-26T00:51:51.010Z,20.92
2022-09-26T00:52:54.009Z,17.82
2022-09-26T00:53:56.854Z,15.28
2022-09-26T00:54:59.737Z,14.52
2022-09-26T00:56:02.710Z,14.54
2022-09-26T00:57:05.279Z,17.10
2022-09-26T00:58:08.491Z,13.33
2022-09-26T00:59:11.937Z,13.22
2022-09-26T01:00:14.588Z,15.16
2022-09-26T01:01:17.645Z,16.07
2022-09-26T01:02:20.846Z,17.26
2022-09-26T01:03:24.169Z,18.32
2022-09-26T01:04:27.264Z,15.97
2022-09-26T01:05:30.322Z,16.64
2022-09-26T01:06:33.191Z,14.42
2022-09-26T01:07:35.964Z,16.78
2022-09-26T01:08:39.054Z,15.74
2022-09-26T01:09:42.227Z,16.56
2022-09-26T01:10:44.804Z,13.28
2022-09-26T01:11:47.667Z,13.71
2022-09-26T01:12:50.379Z,15.26
2022-09-26T01:13:53.632Z,12.85
2022-09-26T01:14:56.513Z,13.86
2022-09-26T01:15:59.403Z,16.47
2022-09-26T01:17:02.587Z,11.57
2022-09-26T01:18:05.438Z,17.85
2022-09-26T01:19:08.263Z,15.48
2022-09-26T01:20:11.084Z,13.53
2022-09-26T01:21:13.859Z,14.72
2022-09-26T01:22:17.160Z,15.50
2022-09-26T01:23:20.647Z,16.90
2022-09-26T01:24:23.613Z,15.49
2022-09-26T01:25:26.793Z,12.15
2022-09-26T01:26:30.485Z,15.57
2022-09-26T01:27:33.497Z,16.05
2022-09-26T01:28:36.353Z,15.75
2022-09-26T01:29:38.805Z,12.39
2022-09-26T01:30:42.039Z,14.09
2022-09-26T01:31:46.681Z,13.69
2022-09-26T01:32:49.761Z,12.35
2022-09-26T01:33:52.952Z,10.55
2022-09-26T01:34:56.872Z,11.18
2022-09-26T01:36:00.585Z,11.42
2022-09-26T01:37:03.549Z,12.96
2022-09-26T01:38:12.004Z,11.10
2022-09-26T01:39:15.698Z,10.91
2022-09-26T01:40:23.000Z,9.51
2022-09-26T01:41:26.370Z,12.25
2022-09-26T01:42:30.188Z,10.32
2022-09-26T01:43:39.510Z,12.07
2022-09-26T01:44:42.286Z,12.36
2022-09-26T01:45:47.091Z,12.17
2022-09-26T01:46:55.006Z,10.97
2022-09-26T01:48:04.070Z,10.49
2022-09-26T01:49:06.771Z,10.63
2022-09-26T01:50:10.264Z,11.28
2022-09-26T01:51:13.647Z,11.93
2022-09-26T01:52:17.447Z,10.15
2022-09-26T01:53:20.727Z,9.94
2022-09-26T01:54:25.826Z,12.32
2022-09-26T01:55:28.733Z,11.15
2022-09-26T01:56:31.914Z,10.47
2022-09-26T01:57:35.604Z,10.27
2022-09-26T01:58:39.110Z,8.16
2022-09-26T01:59:51.746Z,8.57
2022-09-26T02:00:55.266Z,9.60
2022-09-26T02:01:59.262Z,8.43
2022-09-26T02:03:03.463Z,8.08
2022-09-26T02:05:31.169Z,10.13
2022-09-26T02:06:40.594Z,9.24
2022-09-26T02:07:44.806Z,9.80
2022-09-26T02:08:49.113Z,7.26
2022-09-26T02:09:52.488Z,9.99
2022-09-26T02:10:56.090Z,10.23
2022-09-26T02:12:11.386Z,9.07
2022-09-26T02:13:14.738Z,8.29
2022-09-26T02:14:18.628Z,8.13
2022-09-26T02:15:23.173Z,7.82
2022-09-26T02:16:27.108Z,7.33
2022-09-26T02:17:31.151Z,6.29
2022-09-26T02:18:34.879Z,6.86
2022-09-26T02:19:41.505Z,6.26
2022-09-26T02:20:45.618Z,7.95
2022-09-26T02:23:30.215Z,8.04
2022-09-26T02:24:36.989Z,7.14
2022-09-26T02:25:39.914Z,10.54
2022-09-26T02:26:44.021Z,10.32
2022-09-26T02:27:46.991Z,10.02
2022-09-26T02:28:49.967Z,8.62
2022-09-26T02:32:39.088Z,8.29
2022-09-26T02:36:25.606Z,7.20
2022-09-26T02:37:29.555Z,6.93
2022-09-26T02:50:36.527Z,5.89
2022-09-26T02:51:40.029Z,7.47
2022-09-26T02:52:44.021Z,8.43
2022-09-26T02:53:51.666Z,8.06
2022-09-26T02:54:55.682Z,7.51
2022-09-26T02:56:06.926Z,7.12
2022-09-26T02:57:15.453Z,7.33
2022-09-26T03:02:38.740Z,8.44
2022-09-26T03:08:58.440Z,9.00
2022-09-26T03:15:39.426Z,7.71
2022-09-26T03:16:42.927Z,8.82
2022-09-26T03:17:46.492Z,7.88
2022-09-26T03:18:57.499Z,6.94
2022-09-26T03:20:05.621Z,7.38
2022-09-26T03:21:19.330Z,8.83
2022-09-26T03:22:22.866Z,8.09
2022-09-26T03:23:39.419Z,8.82
2022-09-26T03:24:37.216Z,8.86
2022-09-26T03:27:04.737Z,10.99
2022-09-26T03:29:38.587Z,10.01
2022-09-26T03:30:51.134Z,7.87
2022-09-26T03:31:54.241Z,7.57
2022-09-26T03:33:02.192Z,6.79
2022-09-26T03:34:10.569Z,6.51
2022-09-26T03:36:44.626Z,8.10
2022-09-26T03:37:54.094Z,8.37
2022-09-26T03:38:59.026Z,9.66
2022-09-26T03:40:50.769Z,7.98
2022-09-26T03:41:29.680Z,6.93
2022-09-26T03:42:44.506Z,9.94
2022-09-26T03:44:24.641Z,9.83
2022-09-26T03:45:01.586Z,9.50
2022-09-26T03:46:08.477Z,8.78
2022-09-26T03:47:12.781Z,7.35
2022-09-26T03:48:16.288Z,8.39
2022-09-26T03:49:31.054Z,9.71
2022-09-26T03:52:00.955Z,8.99
2022-09-26T03:53:04.423Z,9.40
2022-09-26T03:54:08.029Z,9.41
2022-09-26T03:55:11.623Z,9.67
2022-09-26T03:56:15.004Z,9.70
2022-09-26T03:57:18.380Z,11.25
2022-09-26T03:58:21.899Z,7.24
2022-09-26T03:59:29.831Z,6.35
2022-09-26T04:01:53.581Z,8.88
2022-09-26T04:02:56.924Z,9.84
2022-09-26T04:04:01.850Z,7.46
2022-09-26T04:05:07.180Z,8.40
2022-09-26T04:06:11.081Z,8.37
2022-09-26T04:07:16.724Z,7.39
2022-09-26T04:08:19.996Z,6.78
2022-09-26T04:09:23.785Z,7.08
2022-09-26T04:10:38.946Z,9.03
2022-09-26T04:11:41.520Z,5.94
2022-09-26T04:12:50.831Z,6.72
2022-09-26T04:13:54.503Z,7.08
2022-09-26T04:17:44.564Z,8.49
2022-09-26T04:18:53.450Z,9.01
2022-09-26T04:19:56.624Z,8.92
2022-09-26T04:21:09.780Z,7.89
2022-09-26T04:22:09.973Z,7.74
2022-09-26T04:23:15.805Z,7.98
2022-09-26T04:24:32.070Z,7.55
2022-09-26T04:25:38.065Z,6.42
2022-09-26T04:26:42.884Z,5.97
2022-09-26T04:27:47.971Z,6.69
2022-09-26T04:28:51.278Z,5.29
2022-09-26T04:29:54.641Z,5.69
2022-09-26T04:44:09.089Z,6.06
2022-09-26T04:45:11.959Z,5.90
2022-09-26T04:46:22.831Z,5.65
2022-09-26T04:47:25.467Z,6.30
2022-09-26T04:48:31.983Z,5.67
2022-09-26T04:49:38.339Z,5.94
2022-09-26T04:50:41.298Z,5.21
2022-09-26T04:51:44.171Z,6.25
2022-09-26T04:52:47.560Z,5.67
2022-09-26T04:53:51.663Z,4.96
2022-09-26T04:54:54.931Z,5.85
2022-09-26T04:56:01.325Z,6.07
2022-09-26T04:58:24.975Z,5.29
2022-09-26T04:59:32.555Z,6.02
2022-09-26T05:00:40.901Z,5.52
2022-09-26T05:03:04.994Z,7.63
2022-09-26T05:05:33.917Z,6.49
2022-09-26T05:06:39.782Z,5.36
2022-09-26T05:07:43.973Z,5.23
2022-09-26T05:08:47.153Z,5.49
2022-09-26T05:09:59.601Z,5.63
2022-09-26T05:11:19.113Z,5.22
2022-09-26T05:12:22.615Z,5.83
2022-09-26T05:14:48.243Z,5.47
2022-09-26T05:15:51.556Z,6.02
2022-09-26T05:16:56.020Z,4.87
2022-09-26T05:18:02.994Z,7.22
2022-09-26T05:19:07.617Z,5.83
2022-09-26T05:20:12.231Z,4.42
2022-09-26T05:22:36.529Z,5.56
2022-09-26T05:23:44.797Z,4.71
2022-09-26T05:24:46.373Z,5.67
2022-09-26T05:32:22.150Z,4.15
2022-09-26T05:33:29.927Z,5.51
2022-09-26T05:34:35.669Z,5.87
2022-09-26T05:37:03.371Z,5.63
2022-09-26T05:38:06.930Z,6.01
2022-09-26T05:39:10.214Z,5.20
2022-09-26T05:40:13.389Z,6.79
2022-09-26T05:41:24.699Z,6.45
2022-09-26T05:42:28.983Z,5.78
2022-09-26T05:43:50.191Z,6.35
2022-09-26T05:46:20.719Z,5.76
2022-09-26T05:47:29.225Z,5.00
2022-09-26T05:48:35.060Z,5.65
2022-09-26T05:49:49.511Z,4.89
2022-09-26T05:50:52.589Z,5.77
2022-09-26T05:51:55.454Z,5.78
2022-09-26T05:52:58.739Z,5.05
2022-09-26T05:54:08.940Z,6.34
2022-09-26T05:55:14.102Z,6.95
2022-09-26T05:56:20.471Z,4.83
2022-09-26T05:57:37.860Z,5.56
2022-09-26T05:58:40.667Z,6.09
2022-09-26T05:59:53.360Z,5.24
2022-09-26T06:05:08.998Z,6.11
2022-09-26T06:06:14.618Z,5.66
2022-09-26T06:08:28.431Z,6.44
2022-09-26T06:15:50.699Z,4.40
2022-09-26T06:16:53.891Z,4.87
2022-09-26T06:17:57.485Z,5.29
2022-09-26T06:19:01.294Z,4.77
2022-09-26T06:20:05.295Z,5.58
2022-09-26T06:21:08.258Z,5.46
2022-09-26T06:22:11.565Z,5.71
2022-09-26T06:23:14.938Z,6.57
2022-09-26T06:24:17.953Z,8.59
2022-09-26T06:25:24.290Z,6.24
2022-09-26T06:43:39.977Z,6.32
2022-09-26T06:45:47.769Z,5.44
2022-09-26T06:46:59.809Z,5.56
2022-09-26T06:54:20.586Z,4.96
2022-09-26T06:55:23.483Z,5.05
2022-09-26T06:56:27.300Z,5.81
2022-09-26T06:57:35.421Z,8.71
2022-09-26T06:59:43.502Z,4.95
2022-09-26T07:00:50.470Z,6.87
2022-09-26T07:01:54.465Z,5.78
2022-09-26T07:07:35.147Z,6.29
2022-09-26T07:09:01.017Z,7.31
2022-09-26T07:09:43.954Z,6.28
2022-09-26T07:10:47.649Z,5.33
2022-09-26T07:12:13.498Z,8.73
2022-09-26T07:12:55.771Z,8.19
2022-09-26T07:18:12.736Z,7.13
2022-09-26T07:21:25.710Z,6.09
2022-09-26T07:24:40.763Z,5.59
2022-09-26T07:27:50.234Z,8.90
2022-09-26T07:28:54.927Z,7.51
2022-09-26T07:31:10.322Z,5.98
2022-09-26T07:34:19.656Z,7.92
2022-09-26T07:37:30.970Z,8.48
2022-09-26T07:39:36.486Z,7.01
2022-09-26T07:40:39.516Z,6.37
2022-09-26T07:43:19.624Z,6.80
2022-09-26T07:45:27.979Z,8.39
2022-09-26T07:46:22.455Z,8.24
2022-09-26T07:51:45.393Z,7.15
2022-09-26T07:52:52.268Z,8.11
2022-09-26T07:53:56.362Z,8.45
2022-09-26T07:55:00.776Z,8.48
2022-09-26T07:56:09.487Z,7.69
2022-09-26T07:57:17.060Z,8.85
2022-09-26T07:58:20.473Z,9.61
2022-09-26T07:59:23.942Z,8.19
2022-09-26T08:00:28.573Z,9.92
2022-09-26T08:01:32.186Z,8.46
2022-09-26T08:02:41.345Z,8.01
2022-09-26T08:03:48.749Z,8.93
2022-09-26T08:04:52.389Z,8.05
2022-09-26T08:06:06.975Z,6.12
2022-09-26T08:07:10.102Z,7.59
2022-09-26T08:08:22.312Z,6.82
2022-09-26T08:09:29.697Z,6.78
2022-09-26T08:10:33.042Z,6.63
2022-09-26T08:11:46.454Z,6.32
2022-09-26T08:12:49.863Z,8.14
2022-09-26T08:13:55.726Z,9.84
2022-09-26T08:14:59.123Z,9.59
2022-09-26T08:17:36.034Z,7.62
2022-09-26T08:20:13.342Z,9.30
2022-09-26T08:21:16.948Z,8.69
2022-09-26T08:22:20.740Z,7.39
2022-09-26T08:23:26.371Z,7.64
2022-09-26T08:24:39.104Z,7.99
2022-09-26T08:25:42.248Z,7.94
2022-09-26T08:26:46.770Z,8.48
2022-09-26T08:27:50.053Z,8.63
2022-09-26T08:28:52.979Z,9.76
2022-09-26T08:31:17.276Z,8.13
2022-09-26T08:32:32.562Z,8.05
2022-09-26T08:34:56.552Z,7.65
2022-09-26T08:35:59.953Z,6.82
2022-09-26T08:37:08.302Z,8.69
2022-09-26T08:38:13.093Z,8.75
2022-09-26T08:39:20.410Z,9.66
2022-09-26T08:40:30.881Z,9.36
2022-09-26T08:41:34.395Z,8.89
2022-09-26T08:42:44.972Z,9.50
2022-09-26T08:43:49.990Z,9.36
2022-09-26T08:47:39.246Z,8.43
2022-09-26T08:50:14.275Z,9.57
2022-09-26T08:51:30.981Z,9.36
2022-09-26T08:52:34.679Z,7.83
2022-09-26T08:53:39.602Z,8.44
2022-09-26T08:54:42.573Z,9.37
2022-09-26T08:55:46.241Z,9.22
2022-09-26T08:56:50.975Z,11.91
2022-09-26T08:57:57.045Z,9.99
2022-09-26T08:59:02.047Z,10.16
2022-09-26T09:00:16.901Z,10.57
2022-09-26T09:01:30.964Z,10.01
2022-09-26T09:02:35.155Z,12.80
2022-09-26T09:03:42.527Z,11.50
2022-09-26T09:04:50.259Z,9.55
2022-09-26T09:05:51.049Z,10.64
2022-09-26T09:06:57.807Z,10.67
2022-09-26T09:08:01.467Z,9.39
2022-09-26T09:09:04.930Z,12.63
2022-09-26T09:10:07.770Z,11.90
2022-09-26T09:11:10.867Z,10.84
2022-09-26T09:12:23.832Z,8.97
2022-09-26T09:13:24.891Z,9.99
2022-09-26T09:14:27.571Z,9.41
2022-09-26T09:15:30.764Z,12.53
2022-09-26T09:16:35.602Z,10.58
2022-09-26T09:17:40.584Z,9.56
2022-09-26T09:18:43.885Z,10.16
2022-09-26T09:19:47.445Z,8.52
2022-09-26T09:20:50.848Z,8.03
2022-09-26T09:22:05.912Z,8.71
2022-09-26T09:23:12.564Z,9.85
2022-09-26T09:24:15.752Z,10.28
2022-09-26T09:25:18.941Z,8.46
2022-09-26T09:28:36.055Z,9.03
2022-09-26T09:29:40.216Z,12.00
2022-09-26T09:30:53.700Z,12.08
2022-09-26T09:32:07.833Z,8.35
2022-09-26T09:33:13.771Z,8.61
2022-09-26T09:34:19.225Z,10.78
2022-09-26T09:35:22.284Z,8.55
2022-09-26T09:36:25.912Z,8.38
2022-09-26T09:37:30.082Z,9.76
2022-09-26T09:38:33.981Z,9.95
2022-09-26T09:39:37.174Z,12.92
2022-09-26T09:40:44.428Z,9.75
2022-09-26T09:41:47.463Z,10.38
2022-09-26T09:42:53.070Z,10.16
2022-09-26T09:43:56.166Z,7.17
2022-09-26T09:45:01.798Z,8.82
2022-09-26T09:46:05.206Z,10.24
2022-09-26T09:47:11.017Z,9.84
2022-09-26T09:48:14.212Z,10.69
2022-09-26T09:49:17.427Z,10.85
2022-09-26T09:50:21.689Z,8.69
2022-09-26T09:51:24.988Z,10.19
2022-09-26T09:52:33.786Z,10.90
2022-09-26T09:53:38.818Z,11.79
2022-09-26T09:54:45.782Z,11.11
2022-09-26T09:55:51.622Z,7.47
2022-09-26T09:56:55.125Z,10.54
2022-09-26T09:57:58.284Z,11.33
2022-09-26T09:59:01.790Z,7.35
2022-09-26T10:00:05.163Z,9.37
2022-09-26T10:01:08.260Z,8.64
2022-09-26T10:02:12.343Z,9.35
2022-09-26T10:03:15.642Z,8.82
2022-09-26T10:04:18.614Z,10.16
2022-09-26T10:05:23.440Z,7.67
2022-09-26T10:06:44.717Z,7.73
2022-09-26T10:07:35.633Z,9.08
2022-09-26T10:08:40.861Z,9.31
2022-09-26T10:09:43.733Z,9.23
2022-09-26T10:10:46.936Z,9.33
2022-09-26T10:11:52.559Z,8.28
2022-09-26T10:12:57.192Z,9.54
2022-09-26T10:16:29.006Z,10.17
2022-09-26T10:17:35.918Z,10.26
2022-09-26T10:20:06.761Z,9.89
2022-09-26T10:21:09.723Z,8.69
2022-09-26T10:27:00.858Z,9.29
2022-09-26T10:29:18.597Z,9.91
2022-09-26T10:30:35.789Z,10.51
2022-09-26T10:31:42.504Z,9.56
2022-09-26T10:32:45.444Z,9.20
2022-09-26T10:33:48.624Z,10.38
2022-09-26T10:34:57.673Z,9.12
2022-09-26T10:36:03.388Z,10.36
2022-09-26T10:37:06.993Z,9.31
2022-09-26T10:38:10.300Z,8.06
2022-09-26T10:39:13.955Z,7.51
2022-09-26T10:40:17.494Z,9.79
2022-09-26T10:41:20.771Z,9.05
2022-09-26T10:42:27.455Z,8.43
2022-09-26T10:43:33.340Z,10.35
2022-09-26T10:44:44.305Z,8.24
2022-09-26T10:47:12.784Z,10.90
2022-09-26T10:48:17.920Z,10.58
2022-09-26T10:49:21.508Z,11.27
2022-09-26T10:50:24.585Z,10.92
2022-09-26T10:51:28.786Z,10.12
2022-09-26T10:52:31.674Z,9.66
2022-09-26T10:53:34.946Z,11.36
2022-09-26T10:54:37.767Z,11.91
2022-09-26T10:55:40.808Z,10.92
2022-09-26T10:56:46.443Z,10.32
2022-09-26T10:57:53.389Z,10.62
2022-09-26T10:58:56.705Z,9.45
2022-09-26T10:59:59.764Z,10.70
2022-09-26T11:01:02.538Z,11.12
2022-09-26T11:02:06.036Z,8.08
2022-09-26T11:03:09.574Z,10.20
2022-09-26T11:04:13.102Z,8.38
2022-09-26T11:05:19.989Z,9.79
2022-09-26T11:06:24.049Z,10.12
2022-09-26T11:07:27.261Z,9.34
2022-09-26T11:10:03.583Z,10.21
2022-09-26T11:11:07.449Z,10.32
2022-09-26T11:12:13.577Z,11.97
2022-09-26T11:13:20.534Z,12.71
2022-09-26T11:14:27.843Z,10.06
2022-09-26T11:15:29.065Z,10.95
2022-09-26T11:16:37.069Z,10.10
2022-09-26T11:17:42.610Z,11.14
2022-09-26T11:18:45.882Z,10.35
2022-09-26T11:19:54.501Z,10.25
2022-09-26T11:20:53.574Z,9.67
2022-09-26T11:21:56.772Z,9.84
2022-09-26T11:23:01.372Z,7.34
2022-09-26T11:24:05.223Z,7.87
2022-09-26T11:25:08.839Z,8.29
2022-09-26T11:26:17.161Z,8.22
2022-09-26T11:27:20.569Z,8.98
2022-09-26T11:28:23.640Z,8.85
2022-09-26T11:29:27.240Z,10.76
2022-09-26T11:30:32.263Z,10.09
2022-09-26T11:31:36.031Z,10.72
2022-09-26T11:32:38.958Z,9.87
2022-09-26T11:33:46.503Z,8.27
2022-09-26T11:34:57.679Z,9.06
2022-09-26T11:36:00.989Z,9.30
2022-09-26T11:37:07.222Z,8.94
2022-09-26T11:38:10.808Z,10.89
2022-09-26T11:39:13.932Z,11.52
2022-09-26T11:40:17.950Z,11.05
2022-09-26T11:41:20.767Z,10.81
2022-09-26T11:42:25.169Z,9.42
2022-09-26T11:43:28.869Z,9.09
2022-09-26T11:44:32.046Z,8.71
2022-09-26T11:45:46.612Z,11.36
2022-09-26T11:46:46.021Z,10.09
2022-09-26T11:47:49.270Z,11.10
2022-09-26T11:48:52.863Z,9.72
2022-09-26T11:49:55.944Z,10.64
2022-09-26T11:51:01.699Z,9.78
2022-09-26T11:52:08.148Z,9.93
2022-09-26T11:53:11.010Z,7.54
2022-09-26T11:54:17.407Z,9.41
2022-09-26T11:55:20.670Z,10.75
2022-09-26T11:56:24.061Z,9.71
2022-09-26T11:58:48.227Z,10.95
2022-09-26T11:59:51.204Z,10.83
2022-09-26T12:00:54.526Z,11.72
2022-09-26T12:01:58.412Z,11.46
2022-09-26T12:03:02.058Z,9.14
2022-09-26T12:04:05.854Z,8.96
2022-09-26T12:05:09.161Z,9.78
2022-09-26T12:06:12.250Z,9.78
2022-09-26T12:07:15.309Z,9.27
2022-09-26T12:08:18.701Z,11.18
2022-09-26T12:09:21.601Z,13.72
2022-09-26T12:10:24.567Z,11.73
2022-09-26T12:11:28.184Z,10.86
2022-09-26T12:12:31.747Z,9.64
2022-09-26T12:13:34.825Z,11.80
2022-09-26T12:14:37.901Z,9.78
2022-09-26T12:15:40.978Z,11.13
2022-09-26T12:16:43.550Z,9.89
2022-09-26T12:17:47.452Z,9.76
2022-09-26T12:18:50.441Z,10.63
2022-09-26T12:19:53.396Z,10.28
2022-09-26T12:20:57.706Z,9.97
2022-09-26T12:22:00.819Z,13.86
2022-09-26T12:23:04.068Z,10.28
2022-09-26T12:24:07.807Z,12.83
2022-09-26T12:25:19.914Z,11.07
2022-09-26T12:26:19.445Z,10.68
2022-09-26T12:27:22.226Z,9.88
2022-09-26T12:28:25.299Z,10.53
2022-09-26T12:29:34.869Z,10.24
2022-09-26T12:30:38.122Z,9.03
2022-09-26T12:31:40.879Z,8.22
2022-09-26T12:32:43.773Z,10.24
2022-09-26T12:33:47.044Z,11.12
2022-09-26T12:34:50.445Z,8.25
2022-09-26T12:35:53.632Z,7.43
2022-09-26T12:37:00.078Z,10.90
2022-09-26T12:38:03.250Z,12.51
2022-09-26T12:39:06.306Z,14.37
2022-09-26T12:40:09.348Z,12.68
2022-09-26T12:41:13.324Z,8.22
2022-09-26T12:42:16.099Z,8.68
2022-09-26T12:43:19.615Z,10.25
2022-09-26T12:44:22.778Z,11.94
2022-09-26T12:45:27.183Z,11.38
2022-09-26T12:46:30.504Z,9.01
2022-09-26T12:47:33.827Z,9.38
2022-09-26T12:48:36.807Z,11.24
2022-09-26T12:49:39.891Z,9.60
2022-09-26T12:50:44.110Z,9.49
2022-09-26T12:51:53.636Z,10.53
2022-09-26T12:53:00.370Z,10.97
2022-09-26T12:54:04.392Z,11.51
2022-09-26T12:55:07.378Z,11.83
2022-09-26T12:56:13.767Z,11.04
2022-09-26T12:57:16.511Z,12.71
2022-09-26T12:58:20.099Z,11.41
2022-09-26T12:59:25.638Z,12.95
2022-09-26T13:00:34.258Z,14.43
2022-09-26T13:01:38.481Z,11.79
2022-09-26T13:02:41.609Z,13.44
2022-09-26T13:03:45.233Z,11.63
2022-09-26T13:04:50.849Z,10.54
2022-09-26T13:05:53.633Z,11.19
2022-09-26T13:07:17.739Z,11.12
2022-09-26T13:08:01.942Z,12.34
2022-09-26T13:09:04.926Z,9.03
2022-09-26T13:10:08.279Z,9.91
2022-09-26T13:11:11.894Z,12.13
2022-09-26T13:12:15.194Z,12.29
2022-09-26T13:13:17.954Z,12.43
2022-09-26T13:14:20.621Z,13.75
2022-09-26T13:15:24.349Z,11.43
2022-09-26T13:16:27.646Z,10.56
2022-09-26T13:17:33.541Z,10.79
2022-09-26T13:18:36.742Z,10.80
2022-09-26T13:19:40.121Z,10.89
2022-09-26T13:20:43.707Z,11.77
2022-09-26T13:21:46.895Z,13.19
2022-09-26T13:22:49.978Z,13.05
2022-09-26T13:23:53.058Z,12.76
2022-09-26T13:24:56.426Z,13.85
2022-09-26T13:25:59.504Z,13.00
2022-09-26T13:27:02.914Z,12.35
2022-09-26T13:28:05.772Z,10.82
2022-09-26T13:29:23.277Z,16.64
2022-09-26T13:30:14.017Z,13.68
2022-09-26T13:31:17.814Z,10.18
2022-09-26T13:32:21.065Z,10.46
2022-09-26T13:33:24.059Z,11.16
2022-09-26T13:34:27.120Z,12.14
2022-09-26T13:35:37.361Z,12.03
2022-09-26T13:36:40.661Z,10.36
2022-09-26T13:37:43.670Z,10.31
2022-09-26T13:38:46.780Z,11.22
2022-09-26T13:39:50.321Z,11.55
2022-09-26T13:40:53.312Z,14.79
2022-09-26T13:41:56.257Z,13.45
2022-09-26T13:43:02.949Z,12.74
2022-09-26T13:44:04.562Z,13.04
2022-09-26T13:45:07.644Z,13.87
2022-09-26T13:46:11.111Z,13.27
2022-09-26T13:47:18.306Z,15.08
2022-09-26T13:48:22.509Z,12.26
2022-09-26T13:49:25.693Z,13.41
2022-09-26T13:50:28.661Z,15.69
2022-09-26T13:51:31.853Z,13.74
2022-09-26T13:52:35.685Z,13.80
2022-09-26T13:53:39.071Z,14.69
2022-09-26T13:54:44.680Z,15.12
2022-09-26T13:55:48.282Z,12.47
2022-09-26T13:56:51.558Z,13.56
2022-09-26T13:57:55.765Z,15.87
2022-09-26T13:58:58.959Z,14.13
2022-09-26T14:00:02.339Z,11.11
2022-09-26T14:01:05.609Z,15.02
2022-09-26T14:02:08.712Z,14.54
2022-09-26T14:03:14.645Z,13.42
2022-09-26T14:04:18.440Z,12.98
2022-09-26T14:05:21.409Z,15.64
2022-09-26T14:06:29.018Z,15.95
2022-09-26T14:07:32.089Z,14.02
2022-09-26T14:08:35.058Z,14.63
2022-09-26T14:09:38.235Z,13.58
2022-09-26T14:10:41.531Z,14.47
2022-09-26T14:11:45.615Z,14.06
2022-09-26T14:12:49.524Z,13.24
2022-09-26T14:13:52.908Z,15.34
2022-09-26T14:14:56.324Z,12.91
2022-09-26T14:15:59.771Z,13.06
2022-09-26T14:17:03.071Z,15.96
2022-09-26T14:18:05.938Z,17.82
2022-09-26T14:19:09.533Z,16.34
2022-09-26T14:20:13.121Z,14.92
2022-09-26T14:21:16.733Z,13.05
2022-09-26T14:22:19.805Z,15.36
2022-09-26T14:23:23.383Z,17.63
2022-09-26T14:24:26.984Z,15.98
2022-09-26T14:25:29.847Z,17.06
2022-09-26T14:26:33.347Z,14.97
2022-09-26T14:27:36.829Z,15.44
2022-09-26T14:28:40.008Z,17.28
2022-09-26T14:29:43.607Z,15.41
2022-09-26T14:30:47.015Z,17.76
2022-09-26T14:31:53.976Z,16.55
2022-09-26T14:32:57.337Z,13.45
2022-09-26T14:34:00.656Z,13.65
2022-09-26T14:35:03.826Z,18.68
2022-09-26T14:36:11.001Z,15.78
2022-09-26T14:37:14.476Z,17.66
2022-09-26T14:38:18.481Z,19.36
2022-09-26T14:39:21.183Z,16.01
2022-09-26T14:40:24.419Z,15.72
2022-09-26T14:41:30.899Z,16.08
2022-09-26T14:42:34.176Z,14.28
2022-09-26T14:43:38.174Z,14.08
2022-09-26T14:44:41.252Z,16.00
2022-09-26T14:45:47.714Z,14.06
2022-09-26T14:46:50.991Z,17.52
2022-09-26T14:47:54.390Z,16.32
2022-09-26T14:48:57.976Z,16.48
2022-09-26T14:50:11.491Z,16.42
2022-09-26T14:51:14.379Z,13.56
2022-09-26T14:52:17.673Z,18.19
2022-09-26T14:53:20.645Z,15.88
2022-09-26T14:54:25.152Z,16.76
2022-09-26T14:55:28.322Z,17.04
2022-09-26T14:56:31.326Z,15.58
2022-09-26T14:57:35.307Z,17.65
2022-09-26T14:58:40.951Z,16.30
2022-09-26T14:59:44.030Z,14.94
2022-09-26T15:00:48.436Z,15.43
2022-09-26T15:01:51.586Z,16.52
2022-09-26T15:10:23.004Z,13.53
2022-09-26T15:11:29.479Z,12.04
2022-09-26T15:12:32.563Z,14.16
2022-09-26T15:13:36.286Z,11.85
2022-09-26T15:15:00.052Z,13.92
2022-09-26T15:17:21.839Z,13.75
2022-09-26T15:18:29.545Z,13.25
2022-09-26T15:19:34.484Z,13.13
2022-09-26T15:20:39.295Z,13.23
2022-09-26T15:21:46.383Z,16.86
2022-09-26T15:22:57.820Z,19.39
2022-09-26T15:24:10.951Z,14.60
2022-09-26T15:25:13.761Z,14.68
2022-09-26T15:26:18.021Z,16.22
2022-09-26T15:27:21.202Z,16.81
2022-09-26T15:28:24.167Z,16.52
2022-09-26T15:29:27.037Z,25.14
2022-09-26T15:30:30.542Z,16.31
2022-09-26T15:31:33.838Z,18.55
2022-09-26T15:32:36.896Z,18.98
2022-09-26T15:33:40.074Z,14.98
2022-09-26T15:34:43.591Z,12.75
2022-09-26T15:35:48.092Z,15.51
2022-09-26T15:36:52.807Z,17.15
2022-09-26T15:37:55.869Z,18.60
2022-09-26T15:39:03.259Z,16.44
2022-09-26T15:40:06.750Z,14.64
2022-09-26T15:41:11.885Z,19.83
2022-09-26T15:42:15.164Z,18.59
2022-09-26T15:43:18.852Z,18.32
2022-09-26T15:44:22.140Z,15.87
2022-09-26T15:45:25.420Z,16.81
2022-09-26T15:46:29.186Z,15.35
2022-09-26T15:47:33.125Z,16.01
2022-09-26T15:48:36.313Z,14.06
2022-09-26T15:49:40.204Z,13.45
2022-09-26T15:50:44.921Z,13.65
2022-09-26T15:51:47.896Z,19.81
2022-09-26T15:52:52.001Z,17.21
2022-09-26T15:53:55.089Z,18.61
2022-09-26T15:54:57.942Z,17.72
2022-09-26T15:56:00.924Z,12.55
2022-09-26T15:57:04.107Z,12.10
2022-09-26T15:58:06.875Z,14.66
2022-09-26T15:59:10.169Z,14.05
2022-09-26T16:00:13.343Z,15.20
2022-09-26T16:01:16.210Z,14.23
2022-09-26T16:02:20.184Z,16.34
2022-09-26T16:03:24.233Z,14.39
2022-09-26T16:04:27.506Z,14.24
2022-09-26T16:05:31.822Z,17.64
2022-09-26T16:06:35.492Z,18.55
2022-09-26T16:07:41.577Z,21.01
2022-09-26T16:08:44.939Z,23.10
2022-09-26T16:09:49.157Z,22.53
2022-09-26T16:10:52.224Z,17.42
2022-09-26T16:11:56.433Z,18.56
2022-09-26T16:12:59.089Z,21.74
2022-09-26T16:14:02.389Z,20.95
2022-09-26T16:15:06.794Z,18.29
2022-09-26T16:16:09.637Z,19.88
2022-09-26T16:17:12.657Z,18.35
2022-09-26T16:18:15.941Z,17.06
2022-09-26T16:19:19.230Z,13.43
2022-09-26T16:20:22.193Z,12.55
2022-09-26T16:21:24.965Z,16.73
2022-09-26T16:22:29.420Z,11.95
2022-09-26T16:23:32.142Z,14.40
2022-09-26T16:24:35.350Z,14.89
2022-09-26T16:25:38.318Z,16.14
2022-09-26T16:26:40.988Z,16.33
2022-09-26T16:27:43.539Z,16.52
2022-09-26T16:28:46.426Z,16.38
2022-09-26T16:29:49.700Z,15.25
2022-09-26T16:30:53.185Z,20.33
2022-09-26T16:31:56.480Z,14.55
2022-09-26T16:33:00.090Z,12.52
2022-09-26T16:34:03.259Z,12.00
2022-09-26T16:35:06.749Z,11.70
2022-09-26T16:36:10.023Z,14.09
2022-09-26T16:37:13.223Z,13.81
2022-09-26T16:38:16.810Z,16.01
2022-09-26T16:39:20.900Z,16.12
2022-09-26T16:40:23.625Z,14.60
2022-09-26T16:41:49.058Z,13.64
2022-09-26T16:42:31.376Z,18.63
2022-09-26T16:43:35.180Z,17.29
2022-09-26T16:44:38.175Z,15.12
2022-09-26T16:45:41.744Z,16.68
2022-09-26T16:46:45.065Z,16.34
2022-09-26T16:47:48.706Z,14.48
2022-09-26T16:48:52.109Z,17.66
2022-09-26T16:49:55.073Z,20.66
2022-09-26T16:50:58.158Z,19.65
2022-09-26T16:52:01.128Z,20.35
2022-09-26T16:53:04.308Z,17.75
2022-09-26T16:54:07.376Z,17.16
2022-09-26T16:55:10.472Z,17.76
2022-09-26T16:56:13.965Z,20.59
2022-09-26T16:57:17.134Z,18.65
2022-09-26T16:58:25.964Z,17.43
2022-09-26T16:59:28.665Z,16.21